Time;durP1;ratioP1;P1;durP2;ratioP2;P2;SDS_P1;SDS_P2;PMS_P1;PMS_P2;Temp;Humidity;BMP_temperature;BMP_pressure;BME280_temperature;BME280_humidity;BME280_pressure;Samples;Min_cycle;Max_cycle;Signal;HPM_P1;HPM_P2
2022/09/30 00:00:57;;;;;;;11.73;8.90;;;;;;;15.26;100.00;94354.56;5012461;28;20254;-80
2022/09/30 00:03:24;;;;;;;14.33;9.43;;;;;;;15.33;100.00;94365.59;5012518;28;20203;-79
2022/09/30 00:05:57;;;;;;;14.57;9.37;;;;;;;15.31;100.00;94371.09;5009189;28;20230;-79
2022/09/30 00:08:24;;;;;;;14.43;9.97;;;;;;;15.15;100.00;94350.31;5008609;28;20218;-79
2022/09/30 00:10:59;;;;;;;16.50;10.00;;;;;;;15.23;100.00;94355.06;5008473;28;20199;-79
2022/09/30 00:13:26;;;;;;;18.73;10.00;;;;;;;15.29;100.00;94367.91;5012332;28;20227;-79
2022/09/30 00:15:54;;;;;;;16.37;10.70;;;;;;;15.23;100.00;94353.25;5008127;28;20568;-79
2022/09/30 00:18:22;;;;;;;18.00;10.50;;;;;;;15.28;100.00;94360.31;5008602;28;20237;-80
2022/09/30 00:20:48;;;;;;;15.93;10.10;;;;;;;15.27;100.00;94361.34;5006286;28;20223;-80
2022/09/30 00:23:15;;;;;;;13.53;9.77;;;;;;;15.27;100.00;94353.50;5008578;28;20220;-81
2022/09/30 00:25:42;;;;;;;14.70;10.53;;;;;;;15.31;100.00;94371.09;5007878;28;20239;-80
2022/09/30 00:28:09;;;;;;;14.47;10.07;;;;;;;15.32;100.00;94369.25;5002584;28;20226;-85
2022/09/30 00:30:36;;;;;;;16.43;10.23;;;;;;;15.30;100.00;94368.72;5006221;28;20204;-86
2022/09/30 00:33:06;;;;;;;19.37;10.73;;;;;;;15.13;100.00;94370.69;5007486;28;20221;-84
2022/09/30 00:35:33;;;;;;;17.00;10.60;;;;;;;15.04;100.00;94375.63;5006897;28;20207;-83
2022/09/30 00:38:00;;;;;;;24.17;10.90;;;;;;;14.94;100.00;94365.09;5004511;28;20211;-79
2022/09/30 00:40:29;;;;;;;16.63;11.00;;;;;;;15.03;100.00;94357.56;5011945;28;20226;-79
2022/09/30 00:42:56;;;;;;;18.30;10.80;;;;;;;15.07;100.00;94356.00;5011713;28;20277;-79
2022/09/30 00:45:25;;;;;;;17.63;9.73;;;;;;;15.08;100.00;94368.84;5010225;28;20224;-80
2022/09/30 00:47:54;;;;;;;14.93;10.23;;;;;;;15.09;100.00;94359.94;5011923;28;20208;-81
2022/09/30 00:50:32;;;;;;;14.53;9.83;;;;;;;15.02;100.00;94358.59;5011500;28;20204;-81
2022/09/30 00:53:10;;;;;;;15.77;9.50;;;;;;;14.95;100.00;94352.81;5005517;28;20632;-80
2022/09/30 00:55:44;;;;;;;14.83;9.77;;;;;;;15.00;100.00;94366.72;5008310;28;20235;-80
2022/09/30 00:58:16;;;;;;;15.97;9.80;;;;;;;15.00;100.00;94364.09;5004623;28;20666;-80
2022/09/30 01:00:43;;;;;;;20.17;10.30;;;;;;;15.03;100.00;94360.19;5008111;28;20215;-79
2022/09/30 01:03:10;;;;;;;16.17;10.27;;;;;;;15.08;100.00;94362.81;5010778;28;20203;-81
2022/09/30 01:05:38;;;;;;;16.67;10.20;;;;;;;14.92;100.00;94354.06;5010997;28;20614;-80
2022/09/30 01:08:08;;;;;;;14.20;10.30;;;;;;;14.60;100.00;94340.25;5009159;28;20723;-80
2022/09/30 01:10:35;;;;;;;16.80;10.17;;;;;;;14.46;100.00;94358.19;5013396;28;20211;-81
2022/09/30 01:13:02;;;;;;;18.57;10.60;;;;;;;14.43;100.00;94348.22;5008925;28;20206;-82
2022/09/30 01:15:43;;;;;;;21.77;11.10;;;;;;;14.49;100.00;94349.03;5008970;28;20200;-82
2022/09/30 01:18:18;;;;;;;17.47;10.27;;;;;;;14.47;100.00;94346.69;5004719;28;20557;-86
2022/09/30 01:21:25;;;;;;;16.20;11.00;;;;;;;14.53;100.00;94356.16;5009403;28;20229;-85
2022/09/30 01:24:30;;;;;;;16.93;10.33;;;;;;;14.60;100.00;94369.03;4931483;29;20713;-86
2022/09/30 01:27:39;;;;;;;15.10;10.03;;;;;;;14.66;100.00;94376.66;4997924;28;20203;-86
2022/09/30 01:30:15;;;;;;;17.37;10.00;;;;;;;14.67;100.00;94357.31;4969762;28;20612;-85
2022/09/30 01:32:57;;;;;;;17.23;10.03;;;;;;;14.73;100.00;94374.63;5004113;28;20196;-89
2022/09/30 01:35:35;;;;;;;13.63;9.93;;;;;;;14.62;100.00;94349.44;5003807;28;20246;-88
2022/09/30 01:38:12;;;;;;;15.17;9.13;;;;;;;14.72;100.00;94359.97;5002386;28;20584;-88
2022/09/30 01:40:47;;;;;;;16.67;9.07;;;;;;;14.80;100.00;94366.56;5007240;28;20211;-88
2022/09/30 01:43:25;;;;;;;17.10;9.43;;;;;;;14.81;100.00;94362.91;5005392;28;20235;-87
2022/09/30 01:45:58;;;;;;;15.97;9.50;;;;;;;14.84;100.00;94366.84;5008552;28;20310;-87
2022/09/30 01:48:36;;;;;;;13.63;9.20;;;;;;;14.84;100.00;94365.03;5010004;28;20203;-87
2022/09/30 01:51:08;;;;;;;13.03;9.80;;;;;;;14.98;100.00;94366.16;5002951;28;20203;-89
2022/09/30 01:53:41;;;;;;;14.97;10.30;;;;;;;14.92;100.00;94369.78;5007729;28;20204;-87
2022/09/30 01:56:17;;;;;;;20.83;10.77;;;;;;;14.94;100.00;94372.16;5006066;28;20223;-87
2022/09/30 01:58:53;;;;;;;20.00;11.57;;;;;;;14.90;100.00;94365.84;5003558;28;20238;-87
2022/09/30 02:01:26;;;;;;;20.57;11.50;;;;;;;14.97;100.00;94364.59;5014309;28;20204;-88
2022/09/30 02:03:58;;;;;;;25.40;11.23;;;;;;;14.95;100.00;94374.50;5010410;28;20272;-87
2022/09/30 02:06:30;;;;;;;26.23;12.57;;;;;;;14.89;100.00;94370.28;5016367;28;20214;-88
2022/09/30 02:09:02;;;;;;;20.40;12.30;;;;;;;14.90;100.00;94365.84;5017516;28;20204;-88
2022/09/30 02:11:33;;;;;;;28.23;13.87;;;;;;;14.96;100.00;94375.31;5007566;28;20565;-88
2022/09/30 02:14:05;;;;;;;23.87;13.07;;;;;;;15.00;100.00;94379.00;5002455;28;20207;-89
2022/09/30 02:16:39;;;;;;;89.57;14.00;;;;;;;14.98;100.00;94368.00;5007266;28;20199;-89
2022/09/30 02:19:15;;;;;;;74.00;14.43;;;;;;;15.03;100.00;94381.91;5003964;28;20273;-89
2022/09/30 02:21:46;;;;;;;39.83;14.13;;;;;;;14.96;100.00;94362.22;5005134;28;20207;-87
2022/09/30 02:24:17;;;;;;;29.80;13.10;;;;;;;14.98;100.00;94376.63;5001983;28;20211;-88
2022/09/30 02:26:47;;;;;;;22.10;12.47;;;;;;;14.93;100.00;94379.22;5008667;28;20653;-82
2022/09/30 02:29:19;;;;;;;45.33;15.27;;;;;;;14.97;100.00;94382.91;5004249;28;20290;-81
2022/09/30 02:31:49;;;;;;;69.67;13.83;;;;;;;15.03;100.00;94388.97;5008358;28;20207;-81
2022/09/30 02:34:22;;;;;;;50.73;13.33;;;;;;;15.02;100.00;94387.38;5012671;28;20285;-81
2022/09/30 02:36:55;;;;;;;22.37;11.60;;;;;;;14.98;100.00;94379.25;5007190;28;20204;-81
2022/09/30 02:39:27;;;;;;;35.30;11.53;;;;;;;14.98;100.00;94378.47;5011730;28;20203;-81
2022/09/30 02:42:02;;;;;;;37.37;11.80;;;;;;;15.01;100.00;94380.56;5010460;28;20199;-81
2022/09/30 02:44:30;;;;;;;59.73;13.23;;;;;;;14.93;100.00;94368.75;5001769;28;20289;-82
2022/09/30 02:47:08;;;;;;;17.87;12.00;;;;;;;14.86;100.00;94360.34;5010241;28;20274;-80
2022/09/30 02:49:44;;;;;;;33.67;11.83;;;;;;;14.84;100.00;94361.59;5006201;28;20202;-80
2022/09/30 02:52:21;;;;;;;21.67;11.70;;;;;;;14.89;100.00;94383.38;5001161;28;20233;-81
2022/09/30 02:54:56;;;;;;;18.93;11.70;;;;;;;14.91;100.00;94383.13;5006680;28;20286;-81
2022/09/30 02:57:34;;;;;;;18.63;11.47;;;;;;;14.94;100.00;94388.66;5002818;28;20238;-81
2022/09/30 03:00:01;;;;;;;31.60;13.03;;;;;;;14.93;100.00;94387.06;5008080;28;20583;-80
2022/09/30 03:02:28;;;;;;;20.07;12.40;;;;;;;14.84;100.00;94375.47;5002806;28;20229;-79
2022/09/30 03:04:56;;;;;;;25.53;12.20;;;;;;;14.88;100.00;94394.09;5011570;28;20195;-80
2022/09/30 03:07:24;;;;;;;22.07;11.80;;;;;;;14.88;100.00;94394.88;5007555;28;20195;-80
2022/09/30 03:09:56;;;;;;;28.70;12.37;;;;;;;14.79;100.00;94385.91;5010223;28;20203;-81
2022/09/30 03:12:33;;;;;;;14.73;11.17;;;;;;;14.85;100.00;94405.84;5006805;28;20203;-81
2022/09/30 03:15:19;;;;;;;52.93;13.60;;;;;;;14.64;100.00;94398.88;5000528;28;20756;-80
2022/09/30 03:17:59;;;;;;;33.33;13.77;;;;;;;14.62;100.00;94391.28;5010339;28;20590;-81
2022/09/30 03:20:37;;;;;;;45.27;13.77;;;;;;;14.63;100.00;94394.69;5007271;28;20195;-82
2022/09/30 03:23:24;;;;;;;17.73;11.13;;;;;;;14.22;100.00;94396.09;5004452;28;20214;-81
2022/09/30 03:26:03;;;;;;;28.10;11.10;;;;;;;13.99;100.00;94391.16;5004790;28;20242;-81
2022/09/30 03:28:36;;;;;;;19.97;12.00;;;;;;;13.93;100.00;94403.38;5002255;28;20199;-81
2022/09/30 03:31:11;;;;;;;20.43;13.00;;;;;;;14.04;100.00;94402.47;5004048;28;20223;-82
2022/09/30 03:33:46;;;;;;;50.67;13.40;;;;;;;14.12;100.00;94396.00;5012273;28;20210;-82
2022/09/30 03:36:25;;;;;;;24.53;13.90;;;;;;;14.30;100.00;94394.88;4996913;28;21152;-82
2022/09/30 03:39:01;;;;;;;31.93;14.53;;;;;;;14.39;100.00;94406.50;5002278;28;20214;-82
2022/09/30 03:41:34;;;;;;;32.10;14.00;;;;;;;14.45;100.00;94393.22;4992970;28;20234;-82
2022/09/30 03:44:08;;;;;;;31.60;13.90;;;;;;;14.50;100.00;94390.66;5005535;28;20204;-82
2022/09/30 03:46:40;;;;;;;27.53;14.50;;;;;;;14.53;100.00;94408.47;5003966;28;20330;-87
2022/09/30 03:49:12;;;;;;;27.60;13.97;;;;;;;14.58;100.00;94429.41;5001580;28;20282;-88
2022/09/30 03:51:42;;;;;;;29.27;14.33;;;;;;;14.65;100.00;94432.63;5002416;28;20196;-88
2022/09/30 03:54:10;;;;;;;34.40;15.60;;;;;;;14.72;100.00;94432.41;5002177;28;20337;-81
2022/09/30 03:56:41;;;;;;;46.27;15.50;;;;;;;14.72;100.00;94430.59;5011121;28;20199;-80
2022/09/30 03:59:12;;;;;;;35.67;15.93;;;;;;;14.70;100.00;94424.03;5005057;28;20191;-74
2022/09/30 04:01:39;;;;;;;44.57;16.90;;;;;;;14.65;100.00;94418.75;5011028;28;20289;-74
2022/09/30 04:04:06;;;;;;;34.40;15.77;;;;;;;14.66;100.00;94428.19;5006462;28;20590;-75
2022/09/30 04:06:33;;;;;;;30.17;15.30;;;;;;;14.64;100.00;94420.59;5008437;28;20347;-76
2022/09/30 04:09:01;;;;;;;80.80;15.03;;;;;;;14.59;100.00;94414.53;5009141;28;20203;-76
2022/09/30 04:11:28;;;;;;;75.43;16.90;;;;;;;14.51;100.00;94431.47;5002164;28;20200;-75
2022/09/30 04:13:55;;;;;;;36.30;15.47;;;;;;;14.45;100.00;94429.03;5004643;28;20715;-77
2022/09/30 04:16:22;;;;;;;66.33;16.20;;;;;;;14.39;100.00;94430.81;5008788;28;20226;-74
2022/09/30 04:18:48;;;;;;;41.63;15.33;;;;;;;14.36;100.00;94428.69;5009573;28;20562;-74
2022/09/30 04:21:16;;;;;;;62.60;16.07;;;;;;;14.32;100.00;94424.16;5008429;28;20220;-74
2022/09/30 04:23:43;;;;;;;93.70;15.47;;;;;;;14.20;100.00;94413.84;5008631;28;20236;-74
2022/09/30 04:26:13;;;;;;;125.07;15.73;;;;;;;14.03;100.00;94411.31;5010641;28;20227;-75
2022/09/30 04:28:40;;;;;;;73.70;15.50;;;;;;;14.04;100.00;94419.94;5011533;28;20199;-74
2022/09/30 04:31:11;;;;;;;108.40;16.43;;;;;;;14.04;100.00;94430.41;5008488;28;20214;-74
2022/09/30 04:33:39;;;;;;;38.60;16.03;;;;;;;14.06;100.00;94444.00;5009467;28;20261;-75
2022/09/30 04:36:07;;;;;;;41.40;15.73;;;;;;;14.11;100.00;94436.25;5009195;28;20710;-74
2022/09/30 04:38:34;;;;;;;45.80;16.67;;;;;;;14.13;100.00;94444.63;5007795;28;20208;-74
2022/09/30 04:41:02;;;;;;;93.20;16.13;;;;;;;14.10;100.00;94439.88;5008243;28;20298;-74
2022/09/30 04:43:31;;;;;;;40.87;16.77;;;;;;;14.02;100.00;94443.72;5008653;28;20207;-76
2022/09/30 04:45:58;;;;;;;58.83;17.83;;;;;;;14.08;100.00;94449.81;5011733;28;20224;-76
2022/09/30 04:48:26;;;;;;;46.87;18.07;;;;;;;13.91;100.00;94449.84;5012100;28;20592;-74
2022/09/30 04:50:57;;;;;;;49.93;17.60;;;;;;;13.95;100.00;94466.63;5014352;28;20203;-74
2022/09/30 04:53:24;;;;;;;33.93;18.77;;;;;;;13.95;100.00;94450.94;5011842;28;20554;-73
2022/09/30 04:55:51;;;;;;;49.47;19.10;;;;;;;14.02;100.00;94463.84;5012469;28;20203;-74
2022/09/30 04:58:17;;;;;;;54.67;19.23;;;;;;;13.81;100.00;94475.84;5012819;28;20266;-74
2022/09/30 05:00:46;;;;;;;54.27;18.17;;;;;;;13.79;100.00;94474.53;5014187;28;20218;-74
2022/09/30 05:03:15;;;;;;;97.93;23.10;;;;;;;13.71;100.00;94465.25;5011165;28;20203;-74
2022/09/30 05:05:44;;;;;;;132.90;24.83;;;;;;;13.71;100.00;94464.50;5011750;28;20261;-74
2022/09/30 05:08:11;;;;;;;98.90;23.90;;;;;;;13.78;100.00;94472.94;5011493;28;20284;-75
2022/09/30 05:10:39;;;;;;;67.77;21.13;;;;;;;13.84;100.00;94467.53;5009219;28;20210;-75
2022/09/30 05:13:06;;;;;;;91.90;23.57;;;;;;;13.94;100.00;94482.56;5011488;28;20203;-75
2022/09/30 05:15:34;;;;;;;64.93;20.90;;;;;;;13.94;100.00;94482.56;5008706;28;20290;-75
2022/09/30 05:18:04;;;;;;;43.00;19.80;;;;;;;14.03;100.00;94481.88;5009357;28;20298;-76
2022/09/30 05:20:31;;;;;;;39.33;18.90;;;;;;;13.87;100.00;94485.34;5010982;28;20209;-77
2022/09/30 05:22:59;;;;;;;47.87;18.90;;;;;;;13.75;100.00;94491.69;5012744;28;20203;-76
2022/09/30 05:25:25;;;;;;;45.27;19.40;;;;;;;13.72;100.00;94487.75;5010327;28;20215;-75
2022/09/30 05:27:52;;;;;;;41.70;19.40;;;;;;;13.73;100.00;94491.94;4980856;28;21226;-75
2022/09/30 05:30:19;;;;;;;44.10;20.20;;;;;;;13.82;100.00;94482.66;5008161;28;20203;-76
2022/09/30 05:32:46;;;;;;;46.23;19.60;;;;;;;13.88;100.00;94492.13;5009911;28;20215;-73
2022/09/30 05:35:14;;;;;;;53.00;20.37;;;;;;;14.02;100.00;94490.75;5001418;28;21540;-74
2022/09/30 05:37:42;;;;;;;87.30;21.23;;;;;;;14.15;100.00;94503.44;5013891;28;20205;-74
2022/09/30 05:40:09;;;;;;;79.27;20.20;;;;;;;14.07;100.00;94513.53;5008680;28;20226;-75
2022/09/30 05:42:36;;;;;;;38.67;19.67;;;;;;;14.07;100.00;94509.09;5011263;28;20653;-74
2022/09/30 05:45:05;;;;;;;40.97;20.07;;;;;;;14.17;100.00;94511.84;5008100;28;20651;-74
2022/09/30 05:47:32;;;;;;;41.80;19.50;;;;;;;14.22;100.00;94521.56;5010718;28;20797;-74
2022/09/30 05:49:59;;;;;;;46.37;19.53;;;;;;;14.30;100.00;94521.16;5011489;28;20199;-73
2022/09/30 05:52:33;;;;;;;37.60;19.13;;;;;;;14.27;100.00;94510.38;5013198;28;20207;-74
2022/09/30 05:55:02;;;;;;;37.40;20.17;;;;;;;14.40;100.00;94520.50;5013256;28;20256;-74
2022/09/30 05:57:29;;;;;;;41.03;21.00;;;;;;;14.59;100.00;94516.53;5008969;28;20772;-74
2022/09/30 05:59:57;;;;;;;45.90;21.70;;;;;;;14.70;100.00;94519.00;5015382;28;20242;-73
2022/09/30 06:02:23;;;;;;;47.10;23.20;;;;;;;14.81;100.00;94526.94;5008072;28;20230;-75
2022/09/30 06:04:56;;;;;;;48.67;23.20;;;;;;;14.89;100.00;94526.53;5011637;28;20248;-81
2022/09/30 06:07:23;;;;;;;44.80;22.83;;;;;;;14.97;100.00;94516.38;5007557;28;20220;-75
2022/09/30 06:09:52;;;;;;;47.10;23.97;;;;;;;15.15;100.00;94528.34;5014955;28;20666;-75
2022/09/30 06:12:19;;;;;;;51.90;24.20;;;;;;;15.23;100.00;94522.63;5012220;28;20704;-75
2022/09/30 06:15:07;;;;;;;54.93;26.90;;;;;;;15.16;100.00;94533.31;5012633;28;20235;-75
2022/09/30 06:17:37;;;;;;;49.90;25.77;;;;;;;15.26;100.00;94524.75;5012611;28;20199;-75
2022/09/30 06:20:05;;;;;;;64.60;28.70;;;;;;;15.30;100.00;94533.69;5010613;28;20206;-75
2022/09/30 06:22:34;;;;;;;51.47;26.77;;;;;;;15.43;100.00;94524.63;5011159;28;20285;-75
2022/09/30 06:25:04;;;;;;;56.53;28.40;;;;;;;15.45;100.00;94546.09;5012408;28;20285;-75
2022/09/30 06:27:32;;;;;;;58.07;28.50;;;;;;;15.45;100.00;94543.47;5011979;28;20233;-75
2022/09/30 06:30:02;;;;;;;56.50;28.73;;;;;;;15.51;100.00;94542.50;5013336;28;20206;-76
2022/09/30 06:32:29;;;;;;;58.03;28.07;;;;;;;15.56;100.00;94543.34;5014033;28;20202;-76
2022/09/30 06:34:56;;;;;;;62.50;28.80;;;;;;;15.72;100.00;94559.97;5008267;28;20214;-75
2022/09/30 06:37:23;;;;;;;49.97;26.37;;;;;;;15.73;100.00;94557.09;5008658;28;20207;-76
2022/09/30 06:39:50;;;;;;;49.97;27.00;;;;;;;15.76;100.00;94561.03;5013454;28;20210;-75
2022/09/30 06:42:19;;;;;;;52.83;27.50;;;;;;;15.80;100.00;94560.28;5010029;28;20658;-75
2022/09/30 06:44:58;;;;;;;54.70;27.53;;;;;;;15.80;100.00;94565.53;5009256;28;20223;-75
2022/09/30 06:47:25;;;;;;;52.63;27.53;;;;;;;15.92;100.00;94567.16;5009003;28;20218;-76
2022/09/30 06:49:57;;;;;;;56.33;29.23;;;;;;;15.93;100.00;94579.25;5011378;28;20206;-75
2022/09/30 06:52:24;;;;;;;53.90;29.53;;;;;;;15.98;100.00;94580.06;5006689;28;20200;-75
2022/09/30 06:54:51;;;;;;;68.17;32.60;;;;;;;16.02;100.00;94589.00;5008328;28;20210;-75
2022/09/30 06:57:21;;;;;;;69.77;33.37;;;;;;;15.94;100.00;94601.78;5008462;28;20238;-75
2022/09/30 06:59:48;;;;;;;64.80;32.97;;;;;;;15.98;100.00;94595.78;5009111;28;20218;-75
2022/09/30 07:02:15;;;;;;;73.40;35.00;;;;;;;16.04;100.00;94605.28;5009167;28;20216;-75
2022/09/30 07:04:42;;;;;;;72.83;35.87;;;;;;;16.05;100.00;94601.59;5009353;28;20211;-76
2022/09/30 07:07:09;;;;;;;71.30;35.67;;;;;;;16.09;100.00;94594.81;5009168;28;20297;-75
2022/09/30 07:09:36;;;;;;;67.10;32.87;;;;;;;16.05;100.00;94606.03;4999941;28;20213;-75
2022/09/30 07:12:03;;;;;;;65.80;34.00;;;;;;;16.08;100.00;94598.47;5000496;28;20217;-75
2022/09/30 07:14:32;;;;;;;73.53;35.40;;;;;;;16.10;100.00;94608.72;5003787;28;20663;-76
2022/09/30 07:16:58;;;;;;;66.93;35.10;;;;;;;16.17;100.00;94607.44;5007545;28;20290;-75
2022/09/30 07:19:25;;;;;;;72.53;35.53;;;;;;;16.22;100.00;94611.94;5007914;28;20207;-76
2022/09/30 07:21:52;;;;;;;70.77;33.87;;;;;;;16.27;100.00;94611.97;5007446;28;20571;-76
2022/09/30 07:24:19;;;;;;;72.97;35.17;;;;;;;16.27;100.00;94610.13;5010731;28;20203;-75
2022/09/30 07:26:45;;;;;;;75.93;36.67;;;;;;;16.39;100.00;94615.94;5011270;28;20741;-75
2022/09/30 07:29:13;;;;;;;67.87;34.70;;;;;;;16.46;100.00;94620.97;5006573;28;20208;-76
2022/09/30 07:31:41;;;;;;;71.30;34.83;;;;;;;16.53;100.00;94628.63;5008845;28;20198;-76
2022/09/30 07:34:09;;;;;;;70.93;36.13;;;;;;;16.61;100.00;94621.09;5004929;28;20218;-75
2022/09/30 07:36:39;;;;;;;64.47;34.60;;;;;;;16.66;100.00;94622.94;5007207;28;20230;-74
2022/09/30 07:39:08;;;;;;;62.67;34.53;;;;;;;16.77;100.00;94627.19;5006328;28;20206;-75
2022/09/30 07:41:37;;;;;;;66.43;33.73;;;;;;;16.87;100.00;94620.16;5008998;28;20589;-75
2022/09/30 07:44:05;;;;;;;67.87;34.20;;;;;;;16.87;100.00;94620.16;5008899;28;20206;-75
2022/09/30 07:46:34;;;;;;;64.90;33.60;;;;;;;16.97;100.00;94629.88;5003771;28;20223;-75
2022/09/30 07:49:02;;;;;;;57.53;32.13;;;;;;;16.93;100.00;94627.00;5008436;28;20687;-75
2022/09/30 07:51:32;;;;;;;60.97;31.30;;;;;;;16.93;100.00;94627.00;5005966;28;20261;-75
2022/09/30 07:54:01;;;;;;;56.63;31.77;;;;;;;16.89;100.00;94628.56;5006108;28;20235;-76
2022/09/30 07:56:28;;;;;;;56.80;32.00;;;;;;;16.91;100.00;94623.81;5007478;28;20582;-76
2022/09/30 07:58:56;;;;;;;55.80;31.43;;;;;;;16.92;100.00;94624.63;5006343;28;20248;-76
2022/09/30 08:01:24;;;;;;;63.00;30.80;;;;;;;16.86;100.00;94639.56;5001180;28;20618;-76
2022/09/30 08:03:54;;;;;;;64.90;33.10;;;;;;;16.88;100.00;94626.97;5009255;28;20207;-76
2022/09/30 08:06:24;;;;;;;66.87;34.37;;;;;;;16.87;100.00;94646.41;5006310;28;20199;-76
2022/09/30 08:08:53;;;;;;;63.47;32.73;;;;;;;16.94;100.00;94643.53;5010754;28;20238;-76
2022/09/30 08:11:20;;;;;;;61.93;32.33;;;;;;;17.01;100.00;94650.13;5011722;28;20207;-76
2022/09/30 08:13:53;;;;;;;60.97;33.30;;;;;;;17.09;100.00;94635.69;5008776;28;20624;-76
2022/09/30 08:16:20;;;;;;;66.40;33.07;;;;;;;17.15;100.00;94650.44;5006026;28;20290;-78
2022/09/30 08:18:47;;;;;;;60.80;33.03;;;;;;;17.24;100.00;94650.72;5009792;28;20226;-77
2022/09/30 08:21:14;;;;;;;56.63;27.30;;;;;;;17.29;100.00;94648.09;5008648;28;20200;-82
2022/09/30 08:23:43;;;;;;;49.43;26.50;;;;;;;17.36;100.00;94656.53;5008000;28;20203;-80
2022/09/30 08:26:11;;;;;;;49.97;27.00;;;;;;;17.52;100.00;94663.38;5008982;28;20608;-81
2022/09/30 08:28:39;;;;;;;42.43;24.77;;;;;;;17.59;100.00;94656.06;5006329;28;20227;-81
2022/09/30 08:31:08;;;;;;;40.70;24.43;;;;;;;17.76;100.00;94663.72;5002345;28;20199;-81
2022/09/30 08:33:44;;;;;;;41.40;23.00;;;;;;;17.89;100.00;94671.88;5008217;28;20196;-80
2022/09/30 08:39:04;;;;;;;37.17;20.60;;;;;;;18.24;100.00;94670.31;5003018;28;20635;-80
2022/09/30 08:41:46;;;;;;;33.93;20.60;;;;;;;18.35;100.00;94666.59;5005728;28;20201;-79
2022/09/30 08:44:31;;;;;;;41.83;19.17;;;;;;;18.55;100.00;94664.75;5005988;28;20257;-79
2022/09/30 08:47:10;;;;;;;35.80;18.50;;;;;;;18.70;100.00;94656.00;5006953;28;20195;-78
2022/09/30 08:49:51;;;;;;;30.17;18.80;;;;;;;18.99;100.00;94677.28;5011009;28;20212;-77
2022/09/30 08:52:34;;;;;;;28.95;18.02;;;;;;;19.24;100.00;94683.22;5005571;28;20208;-82
2022/09/30 08:55:07;;;;;;;31.08;17.52;;;;;;;19.39;100.00;94678.97;5003724;28;20196;-79
2022/09/30 08:57:39;;;;;;;27.67;17.70;;;;;;;19.54;100.00;94687.56;5007321;28;20313;-78
2022/09/30 09:00:09;;;;;;;27.65;16.98;;;;;;;19.80;100.00;94682.91;5004916;28;20254;-78
2022/09/30 09:02:50;;;;;;;26.20;16.10;;;;;;;20.18;100.00;94697.16;5005765;28;20675;-79
2022/09/30 09:05:26;;;;;;;35.13;17.48;;;;;;;20.46;100.00;94687.72;5008843;28;20210;-76
2022/09/30 09:08:03;;;;;;;32.95;19.35;;;;;;;20.76;100.00;94688.22;5013799;28;20230;-75
2022/09/30 09:10:41;;;;;;;43.47;19.20;;;;;;;21.08;100.00;94690.25;5011940;28;20203;-81
2022/09/30 09:13:19;;;;;;;35.58;18.92;;;;;;;21.26;100.00;94688.72;5005459;28;20211;-82
2022/09/30 09:15:59;;;;;;;32.45;18.25;;;;;;;21.39;100.00;94693.31;5007938;28;20200;-77
2022/09/30 09:18:45;;;;;;;30.08;18.33;;;;;;;21.50;100.00;94692.91;5006934;28;20203;-80
2022/09/30 09:21:23;;;;;;;27.38;17.00;;;;;;;21.95;100.00;94696.03;5002969;28;20594;-81
2022/09/30 09:23:53;;;;;;;27.58;16.90;;;;;;;22.30;100.00;94710.59;5003746;28;20204;-81
2022/09/30 09:26:23;;;;;;;31.65;15.85;;;;;;;22.63;100.00;94711.38;5008455;28;20571;-82
2022/09/30 09:29:03;;;;;;;34.65;15.35;;;;;;;22.88;97.61;94711.72;5015173;28;20311;-82
2022/09/30 09:31:33;;;;;;;28.52;15.25;;;;;;;23.26;94.75;94701.72;5013723;28;20210;-82
2022/09/30 09:34:09;;;;;;;24.67;14.32;;;;;;;23.56;93.38;94716.25;5005030;28;20198;-82
2022/09/30 09:36:47;;;;;;;26.02;14.60;;;;;;;23.90;91.70;94708.63;5008734;28;20716;-82
2022/09/30 09:39:30;;;;;;;25.40;13.75;;;;;;;24.13;90.62;94707.59;5016144;28;20641;-82
2022/09/30 09:42:05;;;;;;;23.10;12.07;;;;;;;23.65;91.47;94695.91;5001702;28;20204;-81
2022/09/30 09:44:39;;;;;;;19.80;11.90;;;;;;;22.80;92.43;94706.31;5007361;28;20191;-81
2022/09/30 09:47:13;;;;;;;19.02;10.48;;;;;;;22.46;91.90;94703.94;5010492;28;20207;-82
2022/09/30 09:49:43;;;;;;;21.25;11.13;;;;;;;22.90;89.51;94704.25;5011124;28;20256;-82
2022/09/30 09:52:41;;;;;;;21.88;11.10;;;;;;;23.72;93.54;94701.59;5008717;28;20215;-81
2022/09/30 09:55:10;;;;;;;19.25;9.73;;;;;;;24.30;85.00;94696.28;5006059;28;20205;-81
2022/09/30 09:57:40;;;;;;;19.27;8.45;;;;;;;24.83;77.99;94701.66;5011658;28;20235;-82
2022/09/30 10:03:03;;;;;;;12.13;6.10;;;;;;;25.60;69.63;94715.25;4996650;28;20374;-80
2022/09/30 10:05:38;;;;;;;9.98;6.10;;;;;;;26.03;69.94;94715.31;5006073;28;20207;-79
2022/09/30 10:08:15;;;;;;;10.57;5.95;;;;;;;26.62;70.76;94718.25;5005377;28;20231;-80
2022/09/30 10:10:47;;;;;;;10.02;6.25;;;;;;;27.03;70.26;94723.84;5006202;28;20215;-77
2022/09/30 10:13:19;;;;;;;11.48;6.05;;;;;;;27.47;66.86;94717.25;5005784;28;20235;-79
2022/09/30 10:15:46;;;;;;;9.65;5.20;;;;;;;27.61;59.94;94720.47;5005959;28;20238;-78
2022/09/30 10:18:19;;;;;;;13.93;5.75;;;;;;;28.07;62.69;94722.25;5007852;28;20211;-79
2022/09/30 10:20:52;;;;;;;12.30;4.72;;;;;;;28.54;60.99;94720.88;5010354;28;20227;-78
2022/09/30 10:23:21;;;;;;;9.13;5.60;;;;;;;29.01;61.45;94724.06;5010132;28;20682;-77
2022/09/30 10:26:00;;;;;;;8.70;4.95;;;;;;;29.02;59.30;94717.59;5002750;28;20599;-78
2022/09/30 10:28:31;;;;;;;11.38;5.25;;;;;;;29.41;58.38;94712.78;5006197;28;20222;-79
2022/09/30 10:31:05;;;;;;;7.45;5.22;;;;;;;29.37;56.65;94718.00;5007363;28;20935;-79
2022/09/30 10:33:36;;;;;;;6.68;4.57;;;;;;;29.71;55.54;94712.19;5004073;28;20210;-77
2022/09/30 10:36:16;;;;;;;7.00;4.38;;;;;;;29.90;54.83;94718.91;5005607;28;20712;-78
2022/09/30 10:38:59;;;;;;;7.15;4.35;;;;;;;30.36;55.43;94721.00;5005510;28;20237;-79
2022/09/30 10:41:28;;;;;;;8.90;4.13;;;;;;;30.51;48.08;94731.03;5008546;28;20195;-77
2022/09/30 10:44:00;;;;;;;8.50;3.50;;;;;;;30.59;46.87;94723.97;5006678;28;20207;-78
2022/09/30 10:46:30;;;;;;;6.20;3.40;;;;;;;29.86;45.39;94723.34;5008427;28;20207;-77
2022/09/30 10:48:59;;;;;;;6.93;3.30;;;;;;;29.65;47.05;94713.53;5001944;28;20575;-78
2022/09/30 10:51:35;;;;;;;8.07;3.30;;;;;;;29.52;47.14;94711.19;5003149;28;20199;-79
2022/09/30 10:54:02;;;;;;;7.18;2.95;;;;;;;30.00;47.45;94711.16;5000571;28;20207;-78
2022/09/30 10:56:41;;;;;;;6.00;2.70;;;;;;;30.16;44.73;94721.97;5009883;28;20207;-77
2022/09/30 10:59:31;;;;;;;6.00;2.40;;;;;;;29.91;42.24;94723.13;5005909;28;20227;-79
2022/09/30 11:02:05;;;;;;;4.35;2.72;;;;;;;29.94;44.49;94715.19;5001241;28;20629;-78
2022/09/30 11:04:38;;;;;;;5.18;2.80;;;;;;;30.36;43.44;94723.69;5007564;28;20670;-79
2022/09/30 11:07:17;;;;;;;5.70;2.80;;;;;;;30.57;41.18;94734.25;5009045;28;20200;-78
2022/09/30 11:09:50;;;;;;;4.95;2.17;;;;;;;30.49;40.39;94719.06;5009598;28;20237;-79
2022/09/30 11:12:26;;;;;;;6.18;2.47;;;;;;;30.54;41.03;94742.97;5002392;28;20210;-77
2022/09/30 11:15:03;;;;;;;8.73;3.13;;;;;;;30.37;41.52;94725.25;5010332;28;20225;-78
2022/09/30 11:17:36;;;;;;;6.47;3.22;;;;;;;30.14;40.49;94734.91;5007895;28;20205;-77
2022/09/30 11:20:13;;;;;;;7.03;2.42;;;;;;;30.02;40.44;94735.72;5003600;28;20214;-79
2022/09/30 11:22:48;;;;;;;7.70;2.25;;;;;;;30.30;39.74;94735.78;5007268;28;20218;-79
2022/09/30 11:25:21;;;;;;;3.10;2.08;;;;;;;30.43;39.81;94739.22;5004368;28;20222;-79
2022/09/30 11:28:04;;;;;;;3.17;2.00;;;;;;;30.73;38.73;94751.97;5002500;28;20203;-79
2022/09/30 11:30:41;;;;;;;6.28;2.10;;;;;;;30.63;37.72;94743.63;5005812;28;20202;-77
2022/09/30 11:33:27;;;;;;;11.93;2.40;;;;;;;30.36;38.05;94740.56;5006729;28;20673;-79
2022/09/30 11:36:08;;;;;;;11.80;2.53;;;;;;;30.63;37.70;94743.63;5006601;28;20670;-77
2022/09/30 11:38:56;;;;;;;5.15;2.03;;;;;;;30.80;37.08;94741.41;5000281;28;20692;-77
2022/09/30 11:41:29;;;;;;;8.55;2.20;;;;;;;30.96;37.34;94746.84;5006172;28;20199;-78